createdAt,value
2018-12-21T00:00:06.677Z,1.61
2018-12-21T00:02:35.736Z,1.63
2018-12-21T00:05:04.814Z,1.60
2018-12-21T00:07:33.908Z,1.62
2018-12-21T00:10:02.980Z,1.62
2018-12-21T00:12:32.046Z,1.65
2018-12-21T00:15:01.152Z,1.67
2018-12-21T00:17:34.489Z,1.71
2018-12-21T00:19:59.292Z,1.76
2018-12-21T00:22:28.434Z,1.79
2018-12-21T00:24:57.512Z,1.84
2018-12-21T00:27:26.595Z,1.84
2018-12-21T00:29:55.718Z,1.82
2018-12-21T00:32:30.388Z,1.82
2018-12-21T00:35:05.114Z,1.82
2018-12-21T00:37:39.670Z,1.85
2018-12-21T00:40:14.264Z,1.87
2018-12-21T00:42:46.140Z,1.89
2018-12-21T00:45:15.244Z,1.89
2018-12-21T00:47:44.311Z,1.92
2018-12-21T00:50:13.374Z,1.95
2018-12-21T00:52:42.467Z,1.95
2018-12-21T00:55:11.543Z,1.96
2018-12-21T00:57:40.608Z,1.97
2018-12-21T01:00:09.725Z,1.97
2018-12-21T01:02:38.829Z,1.98
2018-12-21T01:05:07.895Z,1.98
2018-12-21T01:07:36.972Z,1.99
2018-12-21T01:10:06.050Z,1.99
2018-12-21T01:12:35.117Z,1.99
2018-12-21T01:15:04.196Z,2.02
2018-12-21T01:17:36.936Z,1.99
2018-12-21T01:20:06.083Z,1.98
2018-12-21T01:22:35.146Z,2.00
2018-12-21T01:25:04.219Z,2.03
2018-12-21T01:27:33.317Z,2.01
2018-12-21T01:30:02.397Z,2.01
2018-12-21T01:32:31.474Z,2.00
2018-12-21T01:35:00.634Z,1.90
2018-12-21T01:37:29.703Z,1.92
2018-12-21T01:39:58.776Z,1.91
2018-12-21T01:42:27.895Z,1.92
2018-12-21T01:44:56.967Z,1.89
2018-12-21T01:47:26.036Z,1.87
2018-12-21T01:49:55.136Z,1.85
2018-12-21T01:52:24.220Z,1.87
2018-12-21T01:54:53.293Z,1.92
2018-12-21T01:57:22.390Z,1.92
2018-12-21T01:59:51.480Z,1.91
2018-12-21T02:02:20.548Z,1.91
2018-12-21T02:04:49.647Z,1.89
2018-12-21T02:07:18.751Z,1.88
2018-12-21T02:09:47.826Z,1.86
2018-12-21T02:12:16.937Z,1.88
2018-12-21T02:14:46.000Z,1.93
2018-12-21T02:17:15.073Z,1.96
2018-12-21T02:19:44.375Z,1.97
2018-12-21T02:22:13.449Z,1.99
2018-12-21T02:24:42.526Z,2.02
2018-12-21T02:27:11.697Z,2.05
2018-12-21T02:29:40.824Z,2.07
2018-12-21T02:32:09.956Z,2.11
2018-12-21T02:34:39.056Z,2.13
2018-12-21T02:37:08.122Z,2.15
2018-12-21T02:39:37.181Z,2.17
2018-12-21T02:42:06.368Z,2.18
2018-12-21T02:44:35.446Z,2.21
2018-12-21T02:47:04.525Z,2.23
2018-12-21T02:49:33.702Z,2.25
2018-12-21T02:52:05.768Z,2.26
2018-12-21T02:54:31.930Z,2.27
2018-12-21T02:57:01.215Z,2.26
2018-12-21T02:59:30.371Z,2.25
2018-12-21T03:01:59.571Z,2.27
2018-12-21T03:04:28.703Z,2.28
2018-12-21T03:06:57.774Z,2.29
2018-12-21T03:09:26.848Z,2.30
2018-12-21T03:11:55.972Z,2.31
2018-12-21T03:14:25.052Z,2.32
2018-12-21T03:16:54.242Z,2.32
2018-12-21T03:19:23.368Z,2.32
2018-12-21T03:21:52.452Z,2.33
2018-12-21T03:24:21.544Z,2.32
2018-12-21T03:26:50.641Z,2.31
2018-12-21T03:29:19.709Z,2.30
2018-12-21T03:31:48.837Z,2.30
2018-12-21T03:34:17.938Z,2.29
2018-12-21T03:36:47.023Z,2.32
2018-12-21T03:39:16.096Z,2.33
2018-12-21T03:41:45.195Z,2.35
2018-12-21T03:44:14.263Z,2.36
2018-12-21T03:46:43.341Z,2.38
2018-12-21T03:49:12.433Z,2.39
2018-12-21T03:51:41.502Z,2.41
2018-12-21T03:54:10.658Z,2.42
2018-12-21T03:56:39.909Z,2.43
2018-12-21T03:59:09.039Z,2.45
2018-12-21T04:01:38.103Z,2.45
2018-12-21T04:04:07.200Z,2.44
2018-12-21T04:06:36.267Z,2.44
2018-12-21T04:09:05.341Z,2.46
2018-12-21T04:11:34.489Z,2.47
2018-12-21T04:14:03.634Z,2.49
2018-12-21T04:16:32.752Z,2.48
2018-12-21T04:19:01.898Z,2.49
2018-12-21T04:21:30.957Z,2.49
2018-12-21T04:24:00.034Z,2.50
2018-12-21T04:26:29.133Z,2.50
2018-12-21T04:28:58.197Z,2.47
2018-12-21T04:31:27.267Z,2.42
2018-12-21T04:33:56.368Z,2.40
2018-12-21T04:36:25.437Z,2.39
2018-12-21T04:38:54.527Z,2.40
2018-12-21T04:41:23.672Z,2.38
2018-12-21T04:43:52.753Z,2.30
2018-12-21T04:46:21.830Z,2.25
2018-12-21T04:48:50.929Z,2.26
2018-12-21T04:51:20.001Z,2.24
2018-12-21T04:53:49.087Z,2.25
2018-12-21T04:56:18.233Z,2.26
2018-12-21T04:58:47.307Z,2.28
2018-12-21T05:01:16.377Z,2.29
2018-12-21T05:03:45.498Z,2.29
2018-12-21T05:06:14.557Z,2.31
2018-12-21T05:08:43.622Z,2.30
2018-12-21T05:11:12.734Z,2.28
2018-12-21T05:13:41.796Z,2.23
2018-12-21T05:16:10.864Z,2.20
2018-12-21T05:18:39.968Z,2.17
2018-12-21T05:21:09.046Z,2.15
2018-12-21T05:23:38.123Z,2.18
2018-12-21T05:26:07.240Z,2.23
2018-12-21T05:28:36.305Z,2.28
2018-12-21T05:31:05.382Z,2.32
2018-12-21T05:33:34.481Z,2.36
2018-12-21T05:36:03.545Z,2.40
2018-12-21T05:38:32.617Z,2.44
2018-12-21T05:41:01.721Z,2.48
2018-12-21T05:43:30.803Z,2.51
2018-12-21T05:46:00.875Z,2.54
2018-12-21T05:48:30.009Z,2.54
2018-12-21T05:50:59.087Z,2.56
2018-12-21T05:53:28.166Z,2.57
2018-12-21T05:55:57.266Z,2.53
2018-12-21T05:58:26.454Z,2.49
2018-12-21T06:00:55.423Z,2.47
2018-12-21T06:03:24.527Z,2.48
2018-12-21T06:05:53.601Z,2.49
2018-12-21T06:08:22.685Z,2.53
2018-12-21T06:10:51.814Z,2.58
2018-12-21T06:13:20.880Z,2.60
2018-12-21T06:15:49.969Z,2.56
2018-12-21T06:18:19.086Z,2.52
2018-12-21T06:20:48.156Z,2.46
2018-12-21T06:23:17.235Z,2.46
2018-12-21T06:25:46.354Z,2.46
2018-12-21T06:28:15.439Z,2.40
2018-12-21T06:30:44.521Z,2.39
2018-12-21T06:33:13.821Z,2.43
2018-12-21T06:35:43.309Z,2.46
2018-12-21T06:38:12.381Z,2.45
2018-12-21T06:40:41.489Z,2.46
2018-12-21T06:43:10.565Z,2.45
2018-12-21T06:45:39.643Z,2.47
2018-12-21T06:48:08.755Z,2.51
2018-12-21T06:50:37.841Z,2.57
2018-12-21T06:53:06.916Z,2.56
2018-12-21T06:55:36.044Z,2.52
2018-12-21T06:58:05.121Z,2.50
2018-12-21T07:00:34.191Z,2.54
2018-12-21T07:03:03.290Z,2.55
2018-12-21T07:05:32.383Z,2.55
2018-12-21T07:08:01.453Z,2.60
2018-12-21T07:10:30.553Z,2.64
2018-12-21T07:12:59.623Z,2.69
2018-12-21T07:15:28.697Z,2.73
2018-12-21T07:17:57.817Z,2.74
2018-12-21T07:20:27.008Z,2.76
2018-12-21T07:22:56.400Z,2.79
2018-12-21T07:25:25.538Z,2.82
2018-12-21T07:27:54.628Z,2.79
2018-12-21T07:30:23.704Z,2.74
2018-12-21T07:32:52.807Z,2.72
2018-12-21T07:35:21.905Z,2.76
2018-12-21T07:37:50.981Z,2.80
2018-12-21T07:40:20.289Z,2.80
2018-12-21T07:42:49.369Z,2.80
2018-12-21T07:45:18.453Z,2.78
2018-12-21T07:47:47.567Z,2.79
2018-12-21T07:50:16.656Z,2.83
2018-12-21T07:52:45.748Z,2.87
2018-12-21T07:55:14.850Z,2.88
2018-12-21T07:57:43.936Z,2.90
2018-12-21T08:00:13.287Z,2.92
2018-12-21T08:02:42.493Z,2.93
2018-12-21T08:05:11.581Z,2.91
2018-12-21T08:07:40.658Z,2.91
2018-12-21T08:10:09.774Z,2.89
2018-12-21T08:12:38.843Z,2.85
2018-12-21T08:15:07.916Z,2.79
2018-12-21T08:17:37.006Z,2.75
2018-12-21T08:20:06.074Z,2.77
2018-12-21T08:22:35.148Z,2.83
2018-12-21T08:25:04.273Z,2.83
2018-12-21T08:27:48.045Z,2.84
2018-12-21T08:30:17.161Z,2.84
2018-12-21T08:32:46.227Z,2.83
2018-12-21T08:35:15.287Z,2.87
2018-12-21T08:37:44.749Z,2.95
2018-12-21T08:40:13.817Z,2.95
2018-12-21T08:42:42.893Z,2.97
2018-12-21T08:45:12.011Z,3.00
2018-12-21T08:47:41.078Z,3.04
2018-12-21T08:50:10.145Z,3.02
2018-12-21T08:52:39.240Z,3.00
2018-12-21T08:55:08.321Z,3.03
2018-12-21T08:57:37.386Z,3.09
2018-12-21T09:03:03.127Z,3.23
2018-12-21T09:05:32.321Z,3.26
2018-12-21T09:08:01.405Z,3.30
2018-12-21T09:10:30.481Z,3.34
2018-12-21T09:12:59.592Z,3.39
2018-12-21T09:15:28.681Z,3.65
2018-12-21T09:17:57.757Z,3.66
2018-12-21T09:20:26.869Z,3.66
2018-12-21T09:22:55.951Z,3.67
2018-12-21T09:25:25.051Z,3.66
2018-12-21T09:27:54.142Z,3.69
2018-12-21T09:30:23.232Z,3.67
2018-12-21T09:32:52.288Z,3.68
2018-12-21T09:35:21.536Z,3.71
2018-12-21T09:37:50.626Z,3.69
2018-12-21T09:40:19.706Z,3.66
2018-12-21T09:42:48.808Z,3.67
2018-12-21T09:45:17.878Z,3.66
2018-12-21T09:47:46.938Z,3.64
2018-12-21T09:50:16.032Z,3.65
2018-12-21T09:52:45.100Z,3.69
2018-12-21T09:55:14.162Z,3.73
2018-12-21T09:57:43.295Z,3.83
2018-12-21T10:00:12.366Z,4.07
2018-12-21T10:02:41.443Z,4.04
2018-12-21T10:05:10.560Z,4.02
2018-12-21T10:07:39.631Z,4.01
2018-12-21T10:10:08.714Z,3.99
2018-12-21T10:12:37.820Z,3.99
2018-12-21T10:15:06.920Z,4.01
2018-12-21T10:17:35.994Z,4.03
2018-12-21T10:20:05.533Z,4.05
2018-12-21T10:22:34.629Z,4.09
2018-12-21T10:25:04.042Z,4.10
2018-12-21T10:27:33.151Z,4.13
2018-12-21T10:30:02.224Z,4.20
2018-12-21T10:32:31.293Z,4.27
2018-12-21T10:35:00.412Z,4.34
2018-12-21T10:37:29.483Z,4.42
2018-12-21T10:39:58.555Z,4.51
2018-12-21T10:42:27.686Z,4.57
2018-12-21T10:44:56.758Z,4.50
2018-12-21T10:47:25.826Z,4.48
2018-12-21T10:49:54.924Z,4.52
2018-12-21T10:52:23.997Z,4.62
2018-12-21T10:54:53.067Z,4.74
2018-12-21T10:57:22.169Z,4.84
2018-12-21T10:59:51.229Z,4.89
2018-12-21T11:02:20.295Z,4.90
2018-12-21T11:04:49.448Z,4.91
2018-12-21T11:07:18.532Z,4.90
2018-12-21T11:09:47.606Z,4.93
2018-12-21T11:12:16.708Z,4.98
2018-12-21T11:14:45.784Z,5.03
2018-12-21T11:17:14.870Z,5.06
2018-12-21T11:19:43.963Z,5.11
2018-12-21T11:22:13.052Z,5.16
2018-12-21T11:24:42.139Z,5.15
2018-12-21T11:27:11.256Z,5.14
2018-12-21T11:29:40.329Z,5.10
2018-12-21T11:32:09.393Z,5.07
2018-12-21T11:34:38.503Z,5.02
2018-12-21T11:37:07.566Z,5.02
2018-12-21T11:39:36.633Z,5.02
2018-12-21T11:42:05.728Z,5.02
2018-12-21T11:44:34.802Z,5.03
2018-12-21T11:47:03.883Z,5.04
2018-12-21T11:49:33.011Z,5.02
2018-12-21T11:52:02.086Z,5.04
2018-12-21T11:54:31.150Z,5.06
2018-12-21T11:57:00.252Z,5.06
2018-12-21T11:59:29.440Z,5.03
2018-12-21T12:01:58.398Z,5.00
2018-12-21T12:04:27.483Z,4.95
2018-12-21T12:06:58.496Z,4.92
2018-12-21T12:09:27.568Z,4.87
2018-12-21T12:11:57.099Z,4.84
2018-12-21T12:14:26.171Z,4.84
2018-12-21T12:16:55.238Z,4.85
2018-12-21T12:19:24.347Z,4.83
2018-12-21T12:21:53.422Z,4.82
2018-12-21T12:24:22.507Z,4.80
2018-12-21T12:26:57.319Z,4.79
2018-12-21T12:29:26.400Z,4.76
2018-12-21T12:31:55.467Z,4.74
2018-12-21T12:34:24.570Z,4.72
2018-12-21T12:36:53.663Z,4.71
2018-12-21T12:39:22.742Z,4.70
2018-12-21T12:41:51.848Z,4.68
2018-12-21T12:44:20.925Z,4.65
2018-12-21T12:46:50.008Z,4.63
2018-12-21T12:49:19.109Z,4.52
2018-12-21T12:51:48.194Z,4.46
2018-12-21T12:54:17.271Z,4.44
2018-12-21T12:56:46.388Z,4.40
2018-12-21T12:59:15.465Z,4.30
2018-12-21T13:01:44.546Z,4.23
2018-12-21T13:04:13.639Z,4.23
2018-12-21T13:06:42.717Z,4.23
2018-12-21T13:09:11.776Z,4.24
2018-12-21T13:11:40.876Z,4.17
2018-12-21T13:14:09.967Z,4.09
2018-12-21T13:16:57.843Z,4.06
2018-12-21T13:19:26.928Z,4.06
2018-12-21T13:21:56.000Z,4.08
2018-12-21T13:24:25.106Z,4.04
2018-12-21T13:26:54.178Z,3.99
2018-12-21T13:29:23.292Z,3.98
2018-12-21T13:31:52.398Z,4.00
2018-12-21T13:34:21.483Z,3.99
2018-12-21T13:36:50.565Z,3.99
2018-12-21T13:39:19.724Z,3.99
2018-12-21T13:41:48.790Z,3.96
2018-12-21T13:44:17.871Z,3.94
2018-12-21T13:46:47.335Z,3.97
2018-12-21T13:49:16.426Z,3.97
2018-12-21T13:51:45.505Z,3.93
2018-12-21T13:54:14.610Z,3.90
2018-12-21T13:56:43.733Z,3.90
2018-12-21T13:59:12.813Z,3.81
2018-12-21T14:01:41.926Z,3.79
2018-12-21T14:04:11.025Z,3.76
2018-12-21T14:06:40.116Z,3.76
2018-12-21T14:09:09.221Z,3.77
2018-12-21T14:11:38.309Z,3.76
2018-12-21T14:14:07.398Z,3.74
2018-12-21T14:16:36.785Z,3.69
2018-12-21T14:19:05.869Z,3.65
2018-12-21T14:21:34.949Z,3.62
2018-12-21T14:24:04.074Z,3.59
2018-12-21T14:26:33.154Z,3.59
2018-12-21T14:29:02.235Z,3.60
2018-12-21T14:31:31.334Z,3.59
2018-12-21T14:34:00.407Z,3.61
2018-12-21T14:36:29.476Z,3.62
2018-12-21T14:38:58.573Z,3.63
2018-12-21T14:41:27.654Z,3.63
2018-12-21T14:43:56.728Z,3.61
2018-12-21T14:46:25.862Z,3.62
2018-12-21T14:48:54.941Z,3.59
2018-12-21T14:51:24.015Z,3.59
2018-12-21T14:53:53.116Z,3.60
2018-12-21T14:56:22.194Z,3.60
2018-12-21T14:58:51.274Z,3.62
2018-12-21T15:01:20.378Z,3.62
2018-12-21T15:03:49.450Z,3.62
2018-12-21T15:06:18.536Z,3.63
2018-12-21T15:08:47.648Z,3.62
2018-12-21T15:11:16.733Z,3.61
2018-12-21T15:13:45.814Z,3.59
2018-12-21T15:16:15.139Z,3.57
2018-12-21T15:18:44.236Z,3.54
2018-12-21T15:21:13.311Z,3.52
2018-12-21T15:23:42.411Z,3.54
2018-12-21T15:26:11.495Z,3.54
2018-12-21T15:28:40.571Z,3.53
2018-12-21T15:31:10.167Z,3.53
2018-12-21T15:33:39.241Z,3.56
2018-12-21T15:36:08.316Z,3.55
2018-12-21T15:38:37.424Z,3.53
2018-12-21T15:41:06.487Z,3.49
2018-12-21T15:43:35.566Z,3.49
2018-12-21T15:46:04.678Z,3.49
2018-12-21T15:48:33.774Z,3.49
2018-12-21T15:51:02.856Z,3.48
2018-12-21T15:53:31.977Z,3.46
2018-12-21T15:56:01.049Z,3.50
2018-12-21T15:58:30.103Z,3.47
2018-12-21T16:00:59.201Z,3.45
2018-12-21T16:03:28.277Z,3.46
2018-12-21T16:05:57.338Z,3.43
2018-12-21T16:08:26.444Z,3.45
2018-12-21T16:10:55.503Z,3.45
2018-12-21T16:13:24.588Z,3.46
2018-12-21T16:15:53.728Z,3.47
2018-12-21T16:18:22.811Z,3.49
2018-12-21T16:20:51.888Z,3.50
2018-12-21T16:23:21.000Z,3.49
2018-12-21T16:25:50.086Z,3.48
2018-12-21T16:28:19.159Z,3.49
2018-12-21T16:30:48.280Z,3.50
2018-12-21T16:33:17.351Z,3.50
2018-12-21T16:35:46.424Z,3.51
2018-12-21T16:38:16.029Z,3.49
2018-12-21T16:40:44.931Z,3.50
2018-12-21T16:43:14.008Z,3.52
2018-12-21T16:45:43.113Z,3.54
2018-12-21T16:48:12.183Z,3.57
2018-12-21T16:50:41.344Z,3.59
2018-12-21T16:53:10.366Z,3.60
2018-12-21T16:55:39.449Z,3.60
2018-12-21T16:58:08.517Z,3.60
2018-12-21T17:00:37.644Z,3.61
2018-12-21T17:03:15.382Z,3.65
2018-12-21T17:05:35.769Z,3.67
2018-12-21T17:08:04.863Z,3.71
2018-12-21T17:10:33.931Z,3.70
2018-12-21T17:13:03.022Z,3.71
2018-12-21T17:15:32.100Z,3.71
2018-12-21T17:18:01.154Z,3.72
2018-12-21T17:20:30.222Z,3.75
2018-12-21T17:23:00.732Z,3.79
2018-12-21T17:25:28.406Z,3.81
2018-12-21T17:27:57.479Z,3.81
2018-12-21T17:30:26.585Z,3.82
2018-12-21T17:32:55.668Z,3.82
2018-12-21T17:35:24.887Z,3.84
2018-12-21T17:37:53.997Z,3.85
2018-12-21T17:40:23.061Z,3.90
2018-12-21T17:42:52.124Z,3.90
2018-12-21T17:45:21.336Z,3.86
2018-12-21T17:47:50.400Z,3.89
2018-12-21T17:50:19.460Z,3.88
2018-12-21T17:52:48.554Z,3.88
2018-12-21T17:55:17.611Z,3.87
2018-12-21T17:57:46.673Z,3.85
2018-12-21T18:00:15.778Z,3.86
2018-12-21T18:02:44.847Z,3.85
2018-12-21T18:05:13.917Z,3.83
2018-12-21T18:07:43.059Z,3.82
2018-12-21T18:10:12.125Z,3.83
2018-12-21T18:12:41.203Z,3.83
2018-12-21T18:15:10.310Z,3.83
2018-12-21T18:17:57.384Z,3.80
2018-12-21T18:20:26.473Z,3.77
2018-12-21T18:22:55.533Z,3.77
2018-12-21T18:25:24.601Z,3.75
2018-12-21T18:27:53.752Z,3.74
2018-12-21T18:30:22.815Z,3.73
2018-12-21T18:32:51.892Z,3.75
2018-12-21T18:35:21.003Z,3.75
2018-12-21T18:37:50.066Z,3.78
2018-12-21T18:40:19.154Z,3.75
2018-12-21T18:42:48.504Z,3.77
2018-12-21T18:45:17.570Z,3.79
2018-12-21T18:47:46.650Z,3.78
2018-12-21T18:50:15.758Z,3.73
2018-12-21T18:52:44.837Z,3.72
2018-12-21T18:55:13.919Z,3.72
2018-12-21T18:57:43.012Z,3.75
2018-12-21T19:00:12.086Z,3.75
2018-12-21T19:02:41.155Z,3.73
2018-12-21T19:05:10.285Z,3.74
2018-12-21T19:07:39.362Z,3.71
2018-12-21T19:10:08.447Z,3.69
2018-12-21T19:12:37.580Z,3.68
2018-12-21T19:15:06.638Z,3.67
2018-12-21T19:17:35.715Z,3.66
2018-12-21T19:20:05.961Z,3.68
2018-12-21T19:22:33.887Z,3.67
2018-12-21T19:25:02.965Z,3.64
2018-12-21T19:27:32.068Z,3.63
2018-12-21T19:30:01.133Z,3.61
2018-12-21T19:32:30.209Z,3.58
2018-12-21T19:34:59.408Z,3.57
2018-12-21T19:37:28.781Z,3.55
2018-12-21T19:39:59.488Z,3.52
2018-12-21T19:42:27.042Z,3.51
2018-12-21T19:44:56.108Z,3.48
2018-12-21T19:47:26.191Z,3.49
2018-12-21T19:49:55.317Z,3.45
2018-12-21T19:52:24.390Z,3.44
2018-12-21T19:54:53.460Z,3.41
2018-12-21T19:57:43.489Z,3.47
2018-12-21T20:00:12.560Z,3.44
2018-12-21T20:02:41.626Z,3.43
2018-12-21T20:05:10.810Z,3.41
2018-12-21T20:07:39.877Z,3.46
2018-12-21T20:10:08.954Z,3.49
2018-12-21T20:12:38.071Z,3.52
2018-12-21T20:15:07.135Z,3.52
2018-12-21T20:17:36.213Z,3.55
2018-12-21T20:20:05.384Z,3.54
2018-12-21T20:22:34.458Z,3.53
2018-12-21T20:25:03.537Z,3.55
2018-12-21T20:27:32.638Z,3.52
2018-12-21T20:30:01.704Z,3.56
2018-12-21T20:32:30.779Z,3.58
2018-12-21T20:34:59.875Z,3.61
2018-12-21T20:37:28.949Z,3.62
2018-12-21T20:39:58.028Z,3.65
2018-12-21T20:42:27.172Z,3.65
2018-12-21T20:44:56.239Z,3.66
2018-12-21T20:47:44.323Z,3.66
2018-12-21T20:50:13.385Z,3.65
2018-12-21T20:52:42.466Z,3.69
2018-12-21T20:55:11.548Z,3.65
2018-12-21T20:57:40.627Z,3.68
2018-12-21T21:00:10.657Z,3.66
2018-12-21T21:02:39.785Z,3.65
2018-12-21T21:05:08.859Z,3.66
2018-12-21T21:07:37.927Z,3.66
2018-12-21T21:10:07.951Z,3.65
2018-12-21T21:12:37.022Z,3.63
2018-12-21T21:15:07.016Z,3.63
2018-12-21T21:17:36.110Z,3.63
2018-12-21T21:20:06.119Z,3.63
2018-12-21T21:22:35.184Z,3.61
2018-12-21T21:25:04.336Z,3.63
2018-12-21T21:27:33.402Z,3.63
2018-12-21T21:30:02.483Z,3.66
2018-12-21T21:32:31.569Z,3.63
2018-12-21T21:35:00.634Z,3.62
2018-12-21T21:37:29.709Z,3.62
2018-12-21T21:39:59.021Z,3.65
2018-12-21T21:42:28.089Z,3.67
2018-12-21T21:44:57.148Z,3.67
2018-12-21T21:47:26.250Z,3.71
2018-12-21T21:49:55.320Z,3.69
2018-12-21T21:52:24.403Z,3.71
2018-12-21T21:54:53.590Z,3.70
2018-12-21T21:57:22.656Z,3.68
2018-12-21T21:59:51.719Z,3.69
2018-12-21T22:02:20.819Z,3.70
2018-12-21T22:04:49.885Z,3.66
2018-12-21T22:07:19.056Z,3.72
2018-12-21T22:09:48.580Z,3.70
2018-12-21T22:12:17.654Z,3.71
2018-12-21T22:14:46.722Z,3.67
2018-12-21T22:17:15.819Z,3.71
2018-12-21T22:19:44.887Z,3.70
2018-12-21T22:22:13.959Z,3.71
2018-12-21T22:24:43.140Z,3.71
2018-12-21T22:27:12.207Z,3.73
2018-12-21T22:29:41.284Z,3.71
2018-12-21T22:32:10.476Z,3.70
2018-12-21T22:34:39.543Z,3.70
2018-12-21T22:37:10.574Z,3.74
2018-12-21T22:39:39.673Z,3.68
2018-12-21T22:42:08.733Z,3.70
2018-12-21T22:44:37.805Z,3.67
2018-12-21T22:47:06.901Z,3.67
2018-12-21T22:49:35.966Z,3.64
2018-12-21T22:52:05.036Z,3.62
2018-12-21T22:54:34.137Z,3.65
2018-12-21T22:57:03.201Z,3.63
2018-12-21T22:59:32.264Z,3.62
2018-12-21T23:02:01.358Z,3.63
2018-12-21T23:04:30.419Z,3.60
2018-12-21T23:06:59.493Z,3.61
2018-12-21T23:09:28.599Z,3.60
2018-12-21T23:11:57.675Z,3.59
2018-12-21T23:14:26.747Z,3.58
2018-12-21T23:16:59.552Z,3.57
2018-12-21T23:19:28.619Z,3.61
2018-12-21T23:21:57.681Z,3.60
2018-12-21T23:24:26.774Z,3.55
2018-12-21T23:26:55.844Z,3.56
2018-12-21T23:29:24.908Z,3.58
2018-12-21T23:31:54.004Z,3.51
2018-12-21T23:34:23.074Z,3.54
2018-12-21T23:36:52.142Z,3.46
2018-12-21T23:39:21.258Z,3.48
2018-12-21T23:41:50.456Z,3.52
2018-12-21T23:44:19.518Z,3.53
2018-12-21T23:46:48.644Z,3.52
2018-12-21T23:49:17.705Z,3.58
2018-12-21T23:51:46.780Z,3.60
2018-12-21T23:54:15.918Z,3.60
2018-12-21T23:56:44.951Z,3.52
2018-12-21T23:59:14.021Z,3.57
